createdAt,value
2022-10-14T00:01:18.282Z,100.00
2022-10-14T00:03:46.591Z,100.00
2022-10-14T00:06:16.597Z,100.00
2022-10-14T00:08:47.415Z,100.00
2022-10-14T00:11:19.006Z,100.00
2022-10-14T00:13:47.794Z,100.00
2022-10-14T00:16:17.978Z,100.00
2022-10-14T00:18:46.281Z,100.00
2022-10-14T00:21:14.689Z,100.00
2022-10-14T00:23:43.011Z,100.00
2022-10-14T00:26:18.383Z,100.00
2022-10-14T00:28:53.941Z,100.00
2022-10-14T00:31:22.265Z,100.00
2022-10-14T00:33:50.652Z,100.00
2022-10-14T00:36:20.391Z,100.00
2022-10-14T00:38:49.353Z,100.00
2022-10-14T00:41:21.191Z,100.00
2022-10-14T00:43:58.504Z,100.00
2022-10-14T00:46:28.034Z,100.00
2022-10-14T00:48:58.245Z,100.00
2022-10-14T00:54:19.943Z,100.00
2022-10-14T00:56:49.782Z,100.00
2022-10-14T00:59:18.244Z,100.00
2022-10-14T01:01:46.544Z,100.00
2022-10-14T01:04:14.920Z,100.00
2022-10-14T01:06:48.981Z,100.00
2022-10-14T01:09:24.269Z,100.00
2022-10-14T01:12:26.828Z,100.00
2022-10-14T01:14:59.117Z,100.00
2022-10-14T01:17:34.581Z,100.00
2022-10-14T01:20:26.115Z,100.00
2022-10-14T01:23:02.928Z,100.00
2022-10-14T01:25:35.864Z,100.00
2022-10-14T01:28:20.189Z,100.00
2022-10-14T01:30:51.241Z,100.00
2022-10-14T01:33:23.744Z,100.00
2022-10-14T01:35:58.862Z,100.00
2022-10-14T01:38:31.392Z,100.00
2022-10-14T01:41:04.223Z,100.00
2022-10-14T01:43:33.541Z,100.00
2022-10-14T01:46:06.158Z,100.00
2022-10-14T01:48:36.996Z,100.00
2022-10-14T01:51:08.761Z,100.00
2022-10-14T01:56:26.870Z,100.00
2022-10-14T01:58:55.928Z,100.00
2022-10-14T02:01:26.018Z,100.00
2022-10-14T02:03:54.271Z,100.00
2022-10-14T02:06:27.194Z,100.00
2022-10-14T02:09:05.076Z,100.00
2022-10-14T02:11:35.882Z,100.00
2022-10-14T02:14:13.700Z,100.00
2022-10-14T02:16:49.109Z,100.00
2022-10-14T02:19:26.088Z,100.00
2022-10-14T02:21:58.709Z,100.00
2022-10-14T02:24:31.266Z,100.00
2022-10-14T02:27:02.830Z,100.00
2022-10-14T02:29:31.839Z,100.00
2022-10-14T02:32:03.377Z,100.00
2022-10-14T02:34:32.923Z,100.00
2022-10-14T02:37:02.192Z,100.00
2022-10-14T02:39:32.134Z,100.00
2022-10-14T02:42:00.354Z,100.00
2022-10-14T02:44:28.628Z,100.00
2022-10-14T02:46:57.244Z,100.00
2022-10-14T02:49:26.922Z,100.00
2022-10-14T02:51:55.157Z,100.00
2022-10-14T02:54:23.424Z,100.00
2022-10-14T02:56:51.679Z,100.00
2022-10-14T02:59:19.916Z,100.00
2022-10-14T03:01:48.238Z,100.00
2022-10-14T03:04:16.481Z,100.00
2022-10-14T03:06:46.092Z,100.00
2022-10-14T03:09:14.279Z,100.00
2022-10-14T03:11:42.485Z,100.00
2022-10-14T03:14:10.779Z,100.00
2022-10-14T03:16:39.044Z,100.00
2022-10-14T03:19:07.298Z,100.00
2022-10-14T03:21:35.563Z,100.00
2022-10-14T03:24:05.805Z,100.00
2022-10-14T03:26:34.111Z,100.00
2022-10-14T03:29:02.494Z,100.00
2022-10-14T03:31:30.688Z,100.00
2022-10-14T03:33:58.933Z,100.00
2022-10-14T03:36:27.297Z,100.00
2022-10-14T03:38:55.540Z,100.00
2022-10-14T03:41:25.219Z,100.00
2022-10-14T03:43:53.643Z,100.00
2022-10-14T03:46:21.925Z,100.00
2022-10-14T03:48:50.163Z,100.00
2022-10-14T03:51:18.443Z,100.00
2022-10-14T03:53:46.623Z,100.00
2022-10-14T03:56:14.904Z,100.00
2022-10-14T03:58:44.535Z,100.00
2022-10-14T04:01:12.827Z,100.00
2022-10-14T04:03:41.943Z,100.00
2022-10-14T04:06:10.364Z,100.00
2022-10-14T04:08:38.637Z,100.00
2022-10-14T04:11:06.914Z,100.00
2022-10-14T04:13:36.555Z,100.00
2022-10-14T04:16:07.275Z,100.00
2022-10-14T04:18:35.871Z,100.00
2022-10-14T04:21:06.076Z,100.00
2022-10-14T04:23:34.465Z,100.00
2022-10-14T04:26:05.009Z,100.00
2022-10-14T04:28:33.193Z,100.00
2022-10-14T04:31:01.541Z,100.00
2022-10-14T04:33:31.565Z,100.00
2022-10-14T04:36:00.081Z,100.00
2022-10-14T04:38:28.438Z,100.00
2022-10-14T04:40:57.256Z,100.00
2022-10-14T04:43:25.753Z,100.00
2022-10-14T04:45:54.439Z,100.00
2022-10-14T04:48:22.811Z,100.00
2022-10-14T04:50:53.468Z,100.00
2022-10-14T04:53:22.630Z,100.00
2022-10-14T04:55:51.746Z,100.00
2022-10-14T04:58:20.114Z,100.00
2022-10-14T05:00:48.310Z,100.00
2022-10-14T05:03:16.546Z,100.00
2022-10-14T05:05:44.785Z,100.00
2022-10-14T05:08:14.349Z,100.00
2022-10-14T05:10:42.677Z,100.00
2022-10-14T05:13:11.130Z,100.00
2022-10-14T05:15:39.511Z,100.00
2022-10-14T05:18:07.765Z,100.00
2022-10-14T05:20:37.990Z,100.00
2022-10-14T05:23:06.380Z,100.00
2022-10-14T05:25:35.995Z,100.00
2022-10-14T05:28:04.372Z,100.00
2022-10-14T05:30:34.922Z,100.00
2022-10-14T05:33:03.285Z,100.00
2022-10-14T05:35:53.980Z,100.00
2022-10-14T05:38:19.786Z,100.00
2022-10-14T05:40:54.600Z,100.00
2022-10-14T05:43:29.344Z,100.00
2022-10-14T05:46:00.820Z,100.00
2022-10-14T05:48:29.116Z,100.00
2022-10-14T05:51:01.379Z,100.00
2022-10-14T05:53:29.917Z,100.00
2022-10-14T05:56:04.078Z,100.00
2022-10-14T05:58:32.745Z,100.00
2022-10-14T06:01:01.378Z,100.00
2022-10-14T06:03:29.977Z,100.00
2022-10-14T06:05:58.435Z,100.00
2022-10-14T06:08:27.277Z,100.00
2022-10-14T06:10:55.890Z,100.00
2022-10-14T06:13:25.488Z,100.00
2022-10-14T06:15:53.709Z,100.00
2022-10-14T06:18:22.217Z,100.00
2022-10-14T06:20:54.027Z,100.00
2022-10-14T06:23:22.445Z,100.00
2022-10-14T06:25:50.750Z,100.00
2022-10-14T06:28:19.271Z,100.00
2022-10-14T06:30:51.738Z,100.00
2022-10-14T06:33:20.121Z,100.00
2022-10-14T06:35:48.656Z,100.00
2022-10-14T06:38:17.481Z,100.00
2022-10-14T06:40:45.745Z,100.00
2022-10-14T06:43:13.962Z,100.00
2022-10-14T06:45:42.209Z,100.00
2022-10-14T06:48:11.807Z,100.00
2022-10-14T06:50:40.087Z,100.00
2022-10-14T06:53:08.709Z,100.00
2022-10-14T06:55:37.250Z,100.00
2022-10-14T06:58:05.565Z,100.00
2022-10-14T07:00:33.785Z,100.00
2022-10-14T07:03:01.977Z,100.00
2022-10-14T07:05:31.655Z,100.00
2022-10-14T07:10:29.510Z,100.00
2022-10-14T07:12:57.760Z,100.00
2022-10-14T07:15:25.934Z,100.00
2022-10-14T07:17:54.210Z,100.00
2022-10-14T07:20:22.423Z,100.00
2022-10-14T07:22:56.320Z,100.00
2022-10-14T07:25:24.545Z,100.00
2022-10-14T07:27:54.025Z,100.00
2022-10-14T07:30:22.597Z,100.00
2022-10-14T07:32:50.892Z,100.00
2022-10-14T07:35:20.032Z,100.00
2022-10-14T07:37:48.309Z,100.00
2022-10-14T07:40:18.068Z,100.00
2022-10-14T07:42:46.843Z,100.00
2022-10-14T07:45:18.194Z,100.00
2022-10-14T07:47:49.055Z,100.00
2022-10-14T07:50:17.416Z,100.00
2022-10-14T07:52:45.775Z,100.00
2022-10-14T07:55:13.970Z,100.00
2022-10-14T07:57:43.742Z,100.00
2022-10-14T08:00:12.753Z,100.00
2022-10-14T08:02:40.985Z,100.00
2022-10-14T08:05:32.868Z,100.00
2022-10-14T08:07:57.395Z,100.00
2022-10-14T08:10:25.697Z,100.00
2022-10-14T08:12:57.777Z,100.00
2022-10-14T08:15:28.514Z,100.00
2022-10-14T08:17:56.908Z,100.00
2022-10-14T08:20:25.128Z,100.00
2022-10-14T08:22:53.413Z,100.00
2022-10-14T08:25:21.632Z,100.00
2022-10-14T08:27:51.102Z,100.00
2022-10-14T08:30:21.199Z,100.00
2022-10-14T08:32:49.742Z,100.00
2022-10-14T08:35:18.132Z,100.00
2022-10-14T08:37:46.363Z,100.00
2022-10-14T08:40:17.236Z,100.00
2022-10-14T08:42:52.126Z,100.00
2022-10-14T08:45:31.242Z,100.00
2022-10-14T08:48:00.150Z,100.00
2022-10-14T08:50:32.171Z,100.00
2022-10-14T08:53:04.603Z,100.00
2022-10-14T08:55:36.667Z,100.00
2022-10-14T08:58:11.400Z,100.00
2022-10-14T09:00:43.144Z,100.00
2022-10-14T09:03:21.089Z,100.00
2022-10-14T09:05:54.926Z,100.00
2022-10-14T09:08:28.311Z,100.00
2022-10-14T09:10:56.569Z,100.00
2022-10-14T09:13:29.941Z,100.00
2022-10-14T09:16:02.195Z,100.00
2022-10-14T09:18:35.095Z,100.00
2022-10-14T09:21:04.541Z,98.71
2022-10-14T09:23:32.977Z,100.00
2022-10-14T09:26:06.773Z,100.00
2022-10-14T09:28:38.263Z,92.20
2022-10-14T09:31:10.281Z,96.74
2022-10-14T09:33:42.196Z,95.79
2022-10-14T09:36:15.679Z,80.52
2022-10-14T09:38:43.944Z,89.33
2022-10-14T09:41:13.867Z,93.50
2022-10-14T09:44:18.345Z,82.46
2022-10-14T09:46:53.108Z,80.81
2022-10-14T09:49:24.473Z,80.11
2022-10-14T09:51:53.067Z,77.19
2022-10-14T09:54:25.164Z,77.03
2022-10-14T09:57:00.990Z,80.79
2022-10-14T09:59:29.950Z,70.68
2022-10-14T10:02:01.887Z,69.21
2022-10-14T10:04:36.036Z,60.90
2022-10-14T10:07:06.879Z,66.82
2022-10-14T10:09:35.570Z,64.62
2022-10-14T10:12:23.948Z,59.63
2022-10-14T10:14:58.200Z,65.89
2022-10-14T10:17:28.740Z,66.87
2022-10-14T10:20:10.768Z,68.79
2022-10-14T10:22:39.355Z,66.58
2022-10-14T10:25:31.375Z,59.04
2022-10-14T10:28:00.549Z,55.49
2022-10-14T10:30:30.282Z,52.18
2022-10-14T10:33:13.674Z,49.74
2022-10-14T10:35:56.254Z,51.89
2022-10-14T10:38:26.983Z,48.63
2022-10-14T10:41:05.815Z,47.69
2022-10-14T10:43:44.771Z,47.91
2022-10-14T10:46:33.552Z,49.21
2022-10-14T10:49:10.637Z,47.13
2022-10-14T10:51:41.965Z,48.67
2022-10-14T10:54:24.482Z,50.30
2022-10-14T10:56:55.172Z,50.40
2022-10-14T10:59:40.851Z,54.86
2022-10-14T11:02:50.486Z,50.77
2022-10-14T11:05:28.006Z,50.28
2022-10-14T11:08:12.983Z,46.62
2022-10-14T11:11:06.061Z,44.68
2022-10-14T11:13:40.096Z,45.77
2022-10-14T11:16:12.568Z,45.38
2022-10-14T11:18:47.559Z,44.99
2022-10-14T11:21:22.845Z,44.21
2022-10-14T11:23:59.924Z,44.76
2022-10-14T11:26:41.422Z,43.83
2022-10-14T11:29:20.437Z,45.39
2022-10-14T11:31:56.290Z,44.61
2022-10-14T11:34:34.788Z,44.79
2022-10-14T11:37:10.399Z,43.09
2022-10-14T11:39:41.523Z,47.04
2022-10-14T11:42:20.928Z,46.79
2022-10-14T11:44:49.988Z,50.52
2022-10-14T11:47:22.710Z,47.43
2022-10-14T11:49:55.788Z,47.16
2022-10-14T11:52:28.803Z,44.82
2022-10-14T11:54:59.105Z,45.49
2022-10-14T11:57:31.797Z,43.76
2022-10-14T12:00:37.193Z,44.37
2022-10-14T12:03:10.362Z,44.44
2022-10-14T12:05:42.386Z,43.56
2022-10-14T12:08:24.549Z,42.97
2022-10-14T12:10:56.507Z,43.91
2022-10-14T12:13:31.955Z,42.13
2022-10-14T12:16:02.075Z,41.74
2022-10-14T12:18:30.992Z,42.40
2022-10-14T12:21:04.972Z,45.56
2022-10-14T12:23:38.161Z,42.52
2022-10-14T12:26:12.582Z,42.10
2022-10-14T12:28:41.335Z,41.76
2022-10-14T12:31:23.890Z,42.65
2022-10-14T12:34:19.247Z,44.65
2022-10-14T12:36:50.693Z,45.33
2022-10-14T12:39:35.919Z,42.53
2022-10-14T12:42:06.906Z,41.58
2022-10-14T12:44:42.321Z,42.60
2022-10-14T12:47:18.549Z,43.10
2022-10-14T12:49:49.528Z,41.93
2022-10-14T12:52:22.623Z,43.98
2022-10-14T12:57:28.757Z,43.91
2022-10-14T12:59:59.642Z,43.41
2022-10-14T13:02:34.490Z,42.91
2022-10-14T13:05:04.666Z,42.40
2022-10-14T13:07:46.393Z,46.88
2022-10-14T13:10:47.038Z,46.70
2022-10-14T13:13:52.318Z,46.69
2022-10-14T13:16:55.599Z,47.90
2022-10-14T13:19:47.234Z,50.79
2022-10-14T13:22:41.073Z,48.99
2022-10-14T13:25:17.685Z,46.92
2022-10-14T13:28:11.470Z,46.24
2022-10-14T13:30:48.371Z,46.02
2022-10-14T13:33:21.377Z,45.15
2022-10-14T13:35:56.032Z,44.44
2022-10-14T13:38:25.086Z,44.50
2022-10-14T13:40:54.852Z,43.13
2022-10-14T13:43:28.945Z,45.31
2022-10-14T13:46:00.398Z,44.72
2022-10-14T13:48:32.261Z,44.31
2022-10-14T13:51:24.607Z,43.06
2022-10-14T13:54:09.647Z,42.81
2022-10-14T13:56:37.913Z,42.82
2022-10-14T13:59:39.343Z,43.02
2022-10-14T14:02:15.485Z,44.04
2022-10-14T14:04:48.279Z,43.96
2022-10-14T14:08:14.564Z,42.76
2022-10-14T14:10:19.252Z,43.77
2022-10-14T14:12:48.198Z,43.03
2022-10-14T14:15:22.688Z,43.79
2022-10-14T14:17:51.728Z,43.98
2022-10-14T14:20:21.842Z,45.88
2022-10-14T14:22:50.606Z,47.53
2022-10-14T14:25:33.878Z,49.69
2022-10-14T14:28:05.611Z,57.92
2022-10-14T14:30:37.404Z,70.12
2022-10-14T14:33:08.439Z,72.20
2022-10-14T14:35:36.665Z,66.32
2022-10-14T14:38:04.966Z,77.41
2022-10-14T14:40:33.257Z,80.88
2022-10-14T14:43:02.764Z,100.00
2022-10-14T14:45:32.664Z,100.00
2022-10-14T14:48:06.480Z,100.00
2022-10-14T14:50:37.055Z,100.00
2022-10-14T14:53:08.378Z,100.00
2022-10-14T14:55:43.471Z,100.00
2022-10-14T14:58:25.552Z,100.00
2022-10-14T15:00:54.937Z,100.00
2022-10-14T15:03:27.108Z,100.00
2022-10-14T15:05:59.090Z,100.00
2022-10-14T15:08:29.168Z,100.00
2022-10-14T15:10:59.353Z,100.00
2022-10-14T15:13:30.961Z,100.00
2022-10-14T15:15:59.650Z,100.00
2022-10-14T15:18:30.495Z,100.00
2022-10-14T15:21:06.901Z,100.00
2022-10-14T15:23:40.215Z,100.00
2022-10-14T15:26:22.756Z,100.00
2022-10-14T15:29:05.142Z,100.00
2022-10-14T15:31:33.820Z,100.00
2022-10-14T15:34:03.858Z,100.00
2022-10-14T15:36:33.240Z,100.00
2022-10-14T15:39:02.487Z,100.00
2022-10-14T15:41:30.813Z,100.00
2022-10-14T15:43:59.051Z,100.00
2022-10-14T15:46:44.881Z,100.00
2022-10-14T15:49:16.809Z,100.00
2022-10-14T15:51:45.093Z,100.00
2022-10-14T15:54:13.581Z,100.00
2022-10-14T15:56:41.828Z,100.00
2022-10-14T15:59:10.114Z,100.00
2022-10-14T16:01:39.898Z,100.00
2022-10-14T16:04:16.900Z,100.00
2022-10-14T16:06:45.119Z,100.00
2022-10-14T16:09:13.491Z,100.00
2022-10-14T16:11:41.818Z,100.00
2022-10-14T16:14:12.619Z,100.00
2022-10-14T16:16:43.272Z,100.00
2022-10-14T16:19:11.734Z,100.00
2022-10-14T16:21:41.431Z,100.00
2022-10-14T16:24:16.337Z,100.00
2022-10-14T16:26:44.537Z,100.00
2022-10-14T16:29:12.778Z,100.00
2022-10-14T16:31:41.103Z,100.00
2022-10-14T16:34:10.981Z,100.00
2022-10-14T16:36:41.140Z,100.00
2022-10-14T16:39:10.670Z,100.00
2022-10-14T16:41:39.022Z,100.00
2022-10-14T16:44:07.694Z,100.00
2022-10-14T16:47:01.947Z,100.00
2022-10-14T16:49:30.288Z,100.00
2022-10-14T16:51:59.886Z,100.00
2022-10-14T16:54:28.404Z,100.00
2022-10-14T16:56:56.935Z,100.00
2022-10-14T16:59:26.018Z,100.00
2022-10-14T17:01:54.293Z,100.00
2022-10-14T17:04:23.176Z,100.00
2022-10-14T17:06:51.779Z,100.00
2022-10-14T17:09:21.706Z,100.00
2022-10-14T17:11:50.756Z,100.00
2022-10-14T17:14:21.824Z,100.00
2022-10-14T17:16:52.244Z,100.00
2022-10-14T17:19:20.781Z,100.00
2022-10-14T17:21:49.215Z,100.00
2022-10-14T17:24:17.551Z,100.00
2022-10-14T17:26:47.147Z,100.00
2022-10-14T17:29:15.463Z,100.00
2022-10-14T17:31:43.735Z,100.00
2022-10-14T17:34:12.022Z,100.00
2022-10-14T17:36:41.648Z,100.00
2022-10-14T17:39:16.414Z,100.00
2022-10-14T17:41:51.318Z,100.00
2022-10-14T17:44:19.957Z,100.00
2022-10-14T17:46:48.233Z,100.00
2022-10-14T17:49:16.510Z,100.00
2022-10-14T17:51:44.897Z,100.00
2022-10-14T17:54:13.383Z,100.00
2022-10-14T17:56:43.020Z,100.00
2022-10-14T17:59:14.154Z,100.00
2022-10-14T18:02:02.702Z,100.00
2022-10-14T18:04:32.291Z,100.00
2022-10-14T18:07:02.912Z,100.00
2022-10-14T18:09:31.126Z,100.00
2022-10-14T18:12:14.752Z,100.00
2022-10-14T18:14:44.404Z,100.00
2022-10-14T18:17:13.209Z,100.00
2022-10-14T18:19:41.905Z,100.00
2022-10-14T18:22:11.567Z,100.00
2022-10-14T18:24:39.972Z,100.00
2022-10-14T18:27:08.254Z,100.00
2022-10-14T18:29:36.613Z,100.00
2022-10-14T18:32:06.557Z,100.00
2022-10-14T18:34:34.818Z,100.00
2022-10-14T18:37:03.029Z,100.00
2022-10-14T18:39:31.292Z,100.00
2022-10-14T18:41:59.505Z,100.00
2022-10-14T18:44:27.787Z,100.00
2022-10-14T18:46:56.834Z,100.00
2022-10-14T18:49:26.530Z,100.00
2022-10-14T18:51:55.335Z,100.00
2022-10-14T18:54:24.891Z,100.00
2022-10-14T18:56:54.821Z,100.00
2022-10-14T18:59:24.201Z,100.00
2022-10-14T19:01:53.322Z,100.00
2022-10-14T19:04:24.319Z,100.00
2022-10-14T19:06:53.821Z,100.00
2022-10-14T19:09:28.729Z,100.00
2022-10-14T19:11:59.001Z,100.00
2022-10-14T19:14:28.614Z,100.00
2022-10-14T19:16:56.979Z,100.00
2022-10-14T19:19:25.519Z,100.00
2022-10-14T19:21:56.252Z,100.00
2022-10-14T19:24:24.505Z,100.00
2022-10-14T19:26:54.166Z,100.00
2022-10-14T19:29:22.551Z,100.00
2022-10-14T19:31:51.138Z,100.00
2022-10-14T19:34:19.342Z,100.00
2022-10-14T19:36:47.884Z,100.00
2022-10-14T19:39:18.951Z,100.00
2022-10-14T19:41:47.506Z,100.00
2022-10-14T19:44:16.797Z,100.00
2022-10-14T19:46:45.331Z,100.00
2022-10-14T19:49:14.873Z,100.00
2022-10-14T19:51:43.508Z,100.00
2022-10-14T19:54:12.936Z,100.00
2022-10-14T19:56:42.551Z,100.00
2022-10-14T19:59:13.481Z,100.00
2022-10-14T20:01:42.733Z,100.00
2022-10-14T20:04:10.980Z,100.00
2022-10-14T20:06:40.170Z,100.00
2022-10-14T20:09:09.056Z,100.00
2022-10-14T20:11:37.266Z,100.00
2022-10-14T20:14:06.918Z,100.00
2022-10-14T20:16:35.552Z,100.00
2022-10-14T20:19:03.885Z,100.00
2022-10-14T20:21:32.093Z,100.00
2022-10-14T20:24:00.595Z,100.00
2022-10-14T20:26:28.937Z,100.00
2022-10-14T20:28:57.399Z,100.00
2022-10-14T20:31:27.115Z,100.00
2022-10-14T20:33:56.748Z,100.00
2022-10-14T20:36:25.116Z,100.00
2022-10-14T20:38:53.361Z,100.00
2022-10-14T20:41:22.835Z,100.00
2022-10-14T20:43:52.206Z,100.00
2022-10-14T20:46:21.834Z,100.00
2022-10-14T20:48:54.397Z,100.00
2022-10-14T20:51:22.744Z,100.00
2022-10-14T20:53:52.777Z,100.00
2022-10-14T20:56:21.799Z,100.00
2022-10-14T20:58:55.008Z,100.00
2022-10-14T21:01:23.321Z,100.00
2022-10-14T21:03:53.508Z,100.00
2022-10-14T21:06:24.114Z,100.00
2022-10-14T21:08:52.699Z,100.00
2022-10-14T21:11:22.890Z,100.00
2022-10-14T21:13:54.232Z,100.00
2022-10-14T21:16:24.612Z,100.00
2022-10-14T21:18:57.905Z,100.00
2022-10-14T21:21:28.495Z,100.00
2022-10-14T21:23:57.253Z,100.00
2022-10-14T21:26:25.594Z,100.00
2022-10-14T21:28:54.051Z,100.00
2022-10-14T21:31:22.995Z,100.00
2022-10-14T21:33:59.854Z,100.00
2022-10-14T21:36:30.925Z,100.00
2022-10-14T21:39:01.192Z,100.00
2022-10-14T21:41:29.547Z,100.00
2022-10-14T21:43:59.266Z,100.00
2022-10-14T21:46:28.181Z,100.00
2022-10-14T21:48:58.750Z,100.00
2022-10-14T21:51:27.334Z,100.00
2022-10-14T21:53:55.487Z,100.00
2022-10-14T21:56:25.779Z,100.00
2022-10-14T21:58:54.381Z,100.00
2022-10-14T22:01:24.417Z,100.00
2022-10-14T22:03:54.974Z,100.00
2022-10-14T22:06:24.376Z,100.00
2022-10-14T22:08:54.306Z,100.00
2022-10-14T22:11:24.860Z,100.00
2022-10-14T22:13:53.247Z,100.00
2022-10-14T22:16:22.108Z,100.00
2022-10-14T22:18:52.289Z,100.00
2022-10-14T22:21:22.248Z,100.00
2022-10-14T22:23:52.310Z,100.00
2022-10-14T22:26:21.960Z,100.00
2022-10-14T22:28:50.576Z,100.00
2022-10-14T22:31:20.951Z,100.00
2022-10-14T22:33:49.861Z,100.00
2022-10-14T22:36:22.832Z,100.00
2022-10-14T22:38:54.155Z,100.00
2022-10-14T22:41:23.538Z,100.00
2022-10-14T22:43:54.002Z,100.00
2022-10-14T22:46:22.684Z,100.00
2022-10-14T22:48:56.007Z,100.00
2022-10-14T22:53:56.948Z,100.00
2022-10-14T22:56:26.614Z,100.00
2022-10-14T22:58:55.181Z,100.00
2022-10-14T23:01:24.044Z,100.00
2022-10-14T23:03:52.264Z,100.00
2022-10-14T23:06:21.154Z,100.00
2022-10-14T23:08:49.910Z,100.00
2022-10-14T23:11:22.053Z,100.00
2022-10-14T23:13:50.279Z,100.00
2022-10-14T23:16:20.756Z,100.00
2022-10-14T23:18:49.247Z,100.00
2022-10-14T23:21:20.217Z,100.00
2022-10-14T23:23:49.727Z,100.00
2022-10-14T23:26:21.345Z,100.00
2022-10-14T23:28:50.240Z,100.00
2022-10-14T23:31:20.499Z,100.00
2022-10-14T23:33:49.025Z,100.00
2022-10-14T23:36:17.498Z,100.00
2022-10-14T23:38:46.458Z,100.00
2022-10-14T23:41:15.086Z,100.00
2022-10-14T23:43:44.721Z,100.00
2022-10-14T23:46:12.921Z,100.00
2022-10-14T23:48:41.532Z,100.00
2022-10-14T23:51:09.903Z,100.00
2022-10-14T23:53:38.123Z,100.00
2022-10-14T23:56:06.768Z,100.00
2022-10-14T23:58:35.111Z,100.00
